createdAt,value
2023-07-06T00:01:53.259Z,8.20
2023-07-06T00:04:39.237Z,8.90
2023-07-06T00:07:25.534Z,8.00
2023-07-06T00:10:11.631Z,6.40
2023-07-06T00:13:01.596Z,6.80
2023-07-06T00:15:49.106Z,5.90
2023-07-06T00:18:35.009Z,6.80
2023-07-06T00:21:21.275Z,6.50
2023-07-06T00:24:08.251Z,6.00
2023-07-06T00:26:54.241Z,8.90
2023-07-06T00:29:56.554Z,8.20
2023-07-06T00:32:42.998Z,7.10
2023-07-06T00:35:29.878Z,9.70
2023-07-06T00:38:18.451Z,7.80
2023-07-06T00:41:03.983Z,7.60
2023-07-06T00:43:54.781Z,6.80
2023-07-06T00:46:40.960Z,7.00
2023-07-06T00:49:27.061Z,7.00
2023-07-06T00:52:13.223Z,7.10
2023-07-06T00:55:02.366Z,6.80
2023-07-06T00:57:52.035Z,8.10
2023-07-06T01:04:18.720Z,6.90
2023-07-06T01:07:05.263Z,6.70
2023-07-06T01:09:53.250Z,8.20
2023-07-06T01:12:39.085Z,7.40
2023-07-06T01:15:28.454Z,6.10
2023-07-06T01:18:22.993Z,7.40
2023-07-06T01:21:14.799Z,8.00
2023-07-06T01:24:09.668Z,7.30
2023-07-06T01:26:55.670Z,6.40
2023-07-06T01:29:53.522Z,5.70
2023-07-06T01:32:40.843Z,6.40
2023-07-06T01:35:36.821Z,7.80
2023-07-06T01:38:23.586Z,7.60
2023-07-06T01:41:10.669Z,7.10
2023-07-06T01:43:56.541Z,7.20
2023-07-06T01:46:51.615Z,8.70
2023-07-06T01:49:37.679Z,10.00
2023-07-06T01:52:42.496Z,7.90
2023-07-06T01:55:30.829Z,9.30
2023-07-06T01:58:34.835Z,9.20
2023-07-06T02:01:23.888Z,9.30
2023-07-06T02:04:10.962Z,10.60
2023-07-06T02:06:59.677Z,10.80
2023-07-06T02:09:46.770Z,10.20
2023-07-06T02:12:32.953Z,12.20
2023-07-06T02:15:21.767Z,11.60
2023-07-06T02:18:07.694Z,8.40
2023-07-06T02:20:53.787Z,8.80
2023-07-06T02:23:40.062Z,6.50
2023-07-06T02:26:26.480Z,12.80
2023-07-06T02:29:13.037Z,8.10
2023-07-06T02:31:58.814Z,8.50
2023-07-06T02:34:46.151Z,7.10
2023-07-06T02:37:32.097Z,6.90
2023-07-06T02:40:17.873Z,7.90
2023-07-06T02:43:03.822Z,7.00
2023-07-06T02:45:49.870Z,5.20
2023-07-06T02:48:35.934Z,5.80
2023-07-06T02:51:23.013Z,17.00
2023-07-06T02:54:10.536Z,5.70
2023-07-06T02:57:01.150Z,6.20
2023-07-06T02:59:46.784Z,4.90
2023-07-06T03:02:32.988Z,4.70
2023-07-06T03:05:22.332Z,7.20
2023-07-06T03:08:08.706Z,4.60
2023-07-06T03:10:56.376Z,4.90
2023-07-06T03:13:42.293Z,4.80
2023-07-06T03:16:28.301Z,5.50
2023-07-06T03:19:14.356Z,6.20
2023-07-06T03:22:00.472Z,5.80
2023-07-06T03:24:46.817Z,4.90
2023-07-06T03:27:32.668Z,4.40
2023-07-06T03:30:22.361Z,4.90
2023-07-06T03:33:08.806Z,4.80
2023-07-06T03:35:55.844Z,5.00
2023-07-06T03:38:41.488Z,5.60
2023-07-06T03:41:27.542Z,5.50
2023-07-06T03:44:13.679Z,9.20
2023-07-06T03:47:01.610Z,4.90
2023-07-06T03:49:47.958Z,5.80
2023-07-06T03:52:36.731Z,5.90
2023-07-06T03:55:24.684Z,4.70
2023-07-06T03:58:11.081Z,8.80
2023-07-06T04:00:58.980Z,5.10
2023-07-06T04:03:44.909Z,7.10
2023-07-06T04:06:30.777Z,5.30
2023-07-06T04:09:16.852Z,6.80
2023-07-06T04:12:02.928Z,5.20
2023-07-06T04:14:48.796Z,6.70
2023-07-06T04:17:36.940Z,4.70
2023-07-06T04:20:24.340Z,14.30
2023-07-06T04:23:10.150Z,23.90
2023-07-06T04:25:56.835Z,5.20
2023-07-06T04:28:43.462Z,5.50
2023-07-06T04:31:29.024Z,6.50
2023-07-06T04:34:14.933Z,4.30
2023-07-06T04:37:03.286Z,4.40
2023-07-06T04:39:49.494Z,3.90
2023-07-06T04:42:35.243Z,6.20
2023-07-06T04:45:22.139Z,5.70
2023-07-06T04:48:08.310Z,8.60
2023-07-06T04:50:54.948Z,6.00
2023-07-06T04:53:40.739Z,6.30
2023-07-06T04:56:26.404Z,5.20
2023-07-06T04:59:12.094Z,5.80
2023-07-06T05:01:58.366Z,4.40
2023-07-06T05:04:44.510Z,4.20
2023-07-06T05:07:31.202Z,4.60
2023-07-06T05:10:17.776Z,5.30
2023-07-06T05:13:04.623Z,9.90
2023-07-06T05:15:51.232Z,4.70
2023-07-06T05:18:37.628Z,4.70
2023-07-06T05:21:23.168Z,4.80
2023-07-06T05:24:09.075Z,6.10
2023-07-06T05:26:55.079Z,4.90
2023-07-06T05:29:41.091Z,5.20
2023-07-06T05:32:27.017Z,3.50
2023-07-06T05:35:13.933Z,5.80
2023-07-06T05:38:00.711Z,5.70
2023-07-06T05:40:46.906Z,4.00
2023-07-06T05:43:32.664Z,3.10
2023-07-06T05:46:18.969Z,3.90
2023-07-06T05:49:04.899Z,3.10
2023-07-06T05:51:50.677Z,4.30
2023-07-06T05:54:36.187Z,3.20
2023-07-06T05:57:22.258Z,3.30
2023-07-06T06:00:10.211Z,2.90
2023-07-06T06:02:56.697Z,3.40
2023-07-06T06:05:42.810Z,3.20
2023-07-06T06:08:28.961Z,3.30
2023-07-06T06:11:16.183Z,7.40
2023-07-06T06:14:03.254Z,6.60
2023-07-06T06:16:49.255Z,3.90
2023-07-06T06:19:38.482Z,3.00
2023-07-06T06:22:25.334Z,4.30
2023-07-06T06:25:11.884Z,3.10
2023-07-06T06:27:57.842Z,2.80
2023-07-06T06:30:44.470Z,3.00
2023-07-06T06:33:30.549Z,5.80
2023-07-06T06:36:17.240Z,5.60
2023-07-06T06:39:04.764Z,3.40
2023-07-06T06:41:52.067Z,6.60
2023-07-06T06:44:42.391Z,3.20
2023-07-06T06:47:28.010Z,2.80
2023-07-06T06:50:14.563Z,6.10
2023-07-06T06:53:00.322Z,3.20
2023-07-06T06:55:46.127Z,4.00
2023-07-06T06:58:32.268Z,3.30
2023-07-06T07:01:17.843Z,2.80
2023-07-06T07:04:03.877Z,3.70
2023-07-06T07:06:50.423Z,4.10
2023-07-06T07:09:36.471Z,6.20
2023-07-06T07:12:22.731Z,3.10
2023-07-06T07:15:10.008Z,3.10
2023-07-06T07:17:56.093Z,8.30
2023-07-06T07:20:44.078Z,5.00
2023-07-06T07:23:35.327Z,4.10
2023-07-06T07:26:22.549Z,5.30
2023-07-06T07:29:08.529Z,3.70
2023-07-06T07:31:54.366Z,3.50
2023-07-06T07:34:41.130Z,3.40
2023-07-06T07:37:26.988Z,4.00
2023-07-06T07:40:16.875Z,3.60
2023-07-06T07:43:02.824Z,3.40
2023-07-06T07:45:48.825Z,3.40
2023-07-06T07:48:38.860Z,8.20
2023-07-06T07:51:27.028Z,2.70
2023-07-06T07:54:13.350Z,3.00
2023-07-06T07:56:59.439Z,4.40
2023-07-06T07:59:49.071Z,4.00
2023-07-06T08:02:35.135Z,3.10
2023-07-06T08:05:21.305Z,3.30
2023-07-06T08:08:07.294Z,4.40
2023-07-06T08:10:54.078Z,4.30
2023-07-06T08:13:41.035Z,5.50
2023-07-06T08:16:29.288Z,5.20
2023-07-06T08:19:42.812Z,4.40
2023-07-06T08:22:23.160Z,2.70
2023-07-06T08:25:12.349Z,2.40
2023-07-06T08:27:59.040Z,3.10
2023-07-06T08:30:44.726Z,2.40
2023-07-06T08:33:37.783Z,2.90
2023-07-06T08:36:23.836Z,3.40
2023-07-06T08:39:10.286Z,2.60
2023-07-06T08:41:58.933Z,3.00
2023-07-06T08:44:50.074Z,3.60
2023-07-06T08:47:37.760Z,2.30
2023-07-06T08:50:27.806Z,5.40
2023-07-06T08:53:15.182Z,2.40
2023-07-06T08:56:03.843Z,3.20
2023-07-06T08:58:50.338Z,2.00
2023-07-06T09:01:37.543Z,2.60
2023-07-06T09:04:24.776Z,2.00
2023-07-06T09:07:13.600Z,2.20
2023-07-06T09:10:18.037Z,2.50
2023-07-06T09:13:15.337Z,3.10
2023-07-06T09:16:03.923Z,2.50
2023-07-06T09:18:53.221Z,2.40
2023-07-06T09:21:39.140Z,2.40
2023-07-06T09:24:30.780Z,4.10
2023-07-06T09:27:23.640Z,2.20
2023-07-06T09:30:30.082Z,3.00
2023-07-06T09:33:19.245Z,3.40
2023-07-06T09:36:05.265Z,2.60
2023-07-06T09:38:51.867Z,7.40
2023-07-06T09:41:43.694Z,2.60
2023-07-06T09:44:30.761Z,2.00
2023-07-06T09:47:16.992Z,2.40
2023-07-06T09:50:18.700Z,2.30
2023-07-06T09:53:07.924Z,2.60
2023-07-06T09:55:55.013Z,2.80
2023-07-06T09:58:42.233Z,3.40
2023-07-06T10:01:34.254Z,2.80
2023-07-06T10:04:29.390Z,1.90
2023-07-06T10:07:34.082Z,1.90
2023-07-06T10:10:38.448Z,2.40
2023-07-06T10:13:39.316Z,2.20
2023-07-06T10:16:44.514Z,5.20
2023-07-06T10:19:38.754Z,4.00
2023-07-06T10:22:35.640Z,3.10
2023-07-06T10:25:34.518Z,1.90
2023-07-06T10:28:24.518Z,2.10
2023-07-06T10:31:13.358Z,3.00
2023-07-06T10:34:03.143Z,2.70
2023-07-06T10:36:49.277Z,2.20
2023-07-06T10:39:44.646Z,2.40
2023-07-06T10:42:34.473Z,2.40
2023-07-06T10:45:22.708Z,2.00
2023-07-06T10:48:27.417Z,2.10
2023-07-06T10:51:26.428Z,1.70
2023-07-06T10:54:17.652Z,2.10
2023-07-06T10:57:04.871Z,2.40
2023-07-06T10:59:52.602Z,4.50
2023-07-06T11:02:40.511Z,2.40
2023-07-06T11:05:28.450Z,2.90
2023-07-06T11:08:36.318Z,3.60
2023-07-06T11:11:22.444Z,3.00
2023-07-06T11:14:20.170Z,1.90
2023-07-06T11:17:26.113Z,4.10
2023-07-06T11:20:25.247Z,2.90
2023-07-06T11:23:12.957Z,3.00
2023-07-06T11:25:59.234Z,4.40
2023-07-06T11:28:45.548Z,2.80
2023-07-06T11:31:40.536Z,3.40
2023-07-06T11:34:45.694Z,2.30
2023-07-06T11:37:57.931Z,3.20
2023-07-06T11:41:01.395Z,2.40
2023-07-06T11:43:50.261Z,1.90
2023-07-06T11:46:41.725Z,6.50
2023-07-06T11:49:33.980Z,2.70
2023-07-06T11:52:25.484Z,2.40
2023-07-06T11:55:32.497Z,2.30
2023-07-06T11:58:38.360Z,3.40
2023-07-06T12:01:39.369Z,3.00
2023-07-06T12:04:26.905Z,2.60
2023-07-06T12:07:33.198Z,4.10
2023-07-06T12:10:19.513Z,2.10
2023-07-06T12:13:12.617Z,3.80
2023-07-06T12:16:07.758Z,1.90
2023-07-06T12:18:59.537Z,1.90
2023-07-06T12:21:51.186Z,8.00
2023-07-06T12:24:37.987Z,2.60
2023-07-06T12:27:27.114Z,2.10
2023-07-06T12:30:14.642Z,2.70
2023-07-06T12:33:05.480Z,3.10
2023-07-06T12:35:53.735Z,1.90
2023-07-06T12:38:40.041Z,2.40
2023-07-06T12:41:26.082Z,2.60
2023-07-06T12:44:14.849Z,2.40
2023-07-06T12:47:19.392Z,3.30
2023-07-06T12:50:09.996Z,3.60
2023-07-06T12:53:23.108Z,2.40
2023-07-06T12:56:14.713Z,4.50
2023-07-06T12:59:01.749Z,4.50
2023-07-06T13:01:47.681Z,4.20
2023-07-06T13:04:48.153Z,3.10
2023-07-06T13:07:34.008Z,3.10
2023-07-06T13:10:21.273Z,3.60
2023-07-06T13:13:19.985Z,3.60
2023-07-06T13:16:13.228Z,4.30
2023-07-06T13:18:59.045Z,3.80
2023-07-06T13:21:45.157Z,6.90
2023-07-06T13:24:32.722Z,3.40
2023-07-06T13:27:18.836Z,4.70
2023-07-06T13:30:07.214Z,2.50
2023-07-06T13:32:57.005Z,2.70
2023-07-06T13:35:45.029Z,4.60
2023-07-06T13:38:30.486Z,8.90
2023-07-06T13:41:17.641Z,3.10
2023-07-06T13:44:04.551Z,3.60
2023-07-06T13:46:53.020Z,3.70
2023-07-06T13:49:41.361Z,4.70
2023-07-06T13:52:29.660Z,3.70
2023-07-06T13:55:18.959Z,3.30
2023-07-06T13:58:05.215Z,3.50
2023-07-06T14:00:51.625Z,3.00
2023-07-06T14:03:36.933Z,4.10
2023-07-06T14:06:24.629Z,4.30
2023-07-06T14:09:11.707Z,3.60
2023-07-06T14:11:57.146Z,3.00
2023-07-06T14:14:42.731Z,3.10
2023-07-06T14:17:28.394Z,2.40
2023-07-06T14:20:15.508Z,2.20
2023-07-06T14:23:01.505Z,4.20
2023-07-06T14:25:47.640Z,5.30
2023-07-06T14:28:32.833Z,3.60
2023-07-06T14:31:28.743Z,2.80
2023-07-06T14:34:14.601Z,3.30
2023-07-06T14:37:01.052Z,2.90
2023-07-06T14:39:46.733Z,3.70
2023-07-06T14:42:34.134Z,3.00
2023-07-06T14:48:09.297Z,3.00
2023-07-06T14:51:02.028Z,3.10
2023-07-06T14:53:49.808Z,3.80
2023-07-06T14:56:39.174Z,3.30
2023-07-06T14:59:25.309Z,3.30
2023-07-06T15:02:12.774Z,5.30
2023-07-06T15:04:58.665Z,3.60
2023-07-06T15:07:44.610Z,3.50
2023-07-06T15:10:30.783Z,3.50
2023-07-06T15:13:16.432Z,3.10
2023-07-06T15:16:02.024Z,3.30
2023-07-06T15:18:48.338Z,3.20
2023-07-06T15:21:33.825Z,3.00
2023-07-06T15:24:19.426Z,3.40
2023-07-06T15:27:05.512Z,2.70
2023-07-06T15:29:51.206Z,4.10
2023-07-06T15:32:37.371Z,3.40
2023-07-06T15:35:23.132Z,3.40
2023-07-06T15:38:09.309Z,3.10
2023-07-06T15:40:54.859Z,3.60
2023-07-06T15:43:40.330Z,3.20
2023-07-06T15:46:26.551Z,3.90
2023-07-06T15:49:12.942Z,4.10
2023-07-06T15:51:59.873Z,3.50
2023-07-06T15:54:45.954Z,3.70
2023-07-06T15:57:31.795Z,3.10
2023-07-06T16:00:17.590Z,4.20
2023-07-06T16:03:03.876Z,5.30
2023-07-06T16:05:49.838Z,4.30
2023-07-06T16:08:35.469Z,9.20
2023-07-06T16:11:24.492Z,3.00
2023-07-06T16:14:17.681Z,3.80
2023-07-06T16:17:03.925Z,3.20
2023-07-06T16:19:49.729Z,3.30
2023-07-06T16:22:35.719Z,3.30
2023-07-06T16:25:20.982Z,3.90
2023-07-06T16:28:06.864Z,3.50
2023-07-06T16:30:52.600Z,4.70
2023-07-06T16:33:41.301Z,3.20
2023-07-06T16:36:26.997Z,3.20
2023-07-06T16:39:12.724Z,5.30
2023-07-06T16:41:58.583Z,4.30
2023-07-06T16:44:44.685Z,4.70
2023-07-06T16:47:31.325Z,4.10
2023-07-06T16:50:17.327Z,3.20
2023-07-06T16:53:02.977Z,3.10
2023-07-06T16:55:49.246Z,2.90
2023-07-06T16:58:35.541Z,13.20
2023-07-06T17:01:21.788Z,4.50
2023-07-06T17:04:07.857Z,4.00
2023-07-06T17:06:54.000Z,5.60
2023-07-06T17:09:39.948Z,3.70
2023-07-06T17:12:25.477Z,5.30
2023-07-06T17:15:11.489Z,3.40
2023-07-06T17:17:57.341Z,3.30
2023-07-06T17:20:43.083Z,3.70
2023-07-06T17:23:29.716Z,4.00
2023-07-06T17:26:15.492Z,11.10
2023-07-06T17:29:01.627Z,4.90
2023-07-06T17:31:47.708Z,3.90
2023-07-06T17:34:33.664Z,8.50
2023-07-06T17:37:19.914Z,4.10
2023-07-06T17:40:06.285Z,4.10
2023-07-06T17:42:51.972Z,3.10
2023-07-06T17:45:37.898Z,3.50
2023-07-06T17:48:24.440Z,4.20
2023-07-06T17:51:10.555Z,4.30
2023-07-06T17:53:59.414Z,4.00
2023-07-06T17:56:46.668Z,4.60
2023-07-06T17:59:32.617Z,3.70
2023-07-06T18:02:19.139Z,4.10
2023-07-06T18:05:04.954Z,8.20
2023-07-06T18:07:50.799Z,16.50
2023-07-06T18:10:36.845Z,12.30
2023-07-06T18:13:22.581Z,7.00
2023-07-06T18:16:08.714Z,8.40
2023-07-06T18:18:54.770Z,15.30
2023-07-06T18:21:41.283Z,67.60
2023-07-06T18:24:27.123Z,128.80
2023-07-06T18:27:12.812Z,140.10
2023-07-06T18:29:58.600Z,139.20
2023-07-06T18:32:44.830Z,99.20
2023-07-06T18:35:30.905Z,78.40
2023-07-06T18:38:17.119Z,34.70
2023-07-06T18:41:03.068Z,23.60
2023-07-06T18:43:48.751Z,16.50
2023-07-06T18:46:34.818Z,15.10
2023-07-06T18:49:21.369Z,22.10
2023-07-06T18:52:07.334Z,14.40
2023-07-06T18:54:53.075Z,14.80
2023-07-06T18:57:39.114Z,9.00
2023-07-06T19:00:24.961Z,11.50
2023-07-06T19:03:11.073Z,9.20
2023-07-06T19:05:57.564Z,3.90
2023-07-06T19:08:43.707Z,4.60
2023-07-06T19:11:29.761Z,4.90
2023-07-06T19:14:19.232Z,4.10
2023-07-06T19:17:06.177Z,4.40
2023-07-06T19:19:53.585Z,4.70
2023-07-06T19:22:51.530Z,4.40
2023-07-06T19:25:37.784Z,4.30
2023-07-06T19:28:23.773Z,4.60
2023-07-06T19:31:09.593Z,5.50
2023-07-06T19:33:55.972Z,5.00
2023-07-06T19:36:41.956Z,5.80
2023-07-06T19:39:28.008Z,3.90
2023-07-06T19:42:14.358Z,5.10
2023-07-06T19:45:00.470Z,5.20
2023-07-06T19:47:46.680Z,3.70
2023-07-06T19:50:32.471Z,3.40
2023-07-06T19:53:17.852Z,3.90
2023-07-06T19:56:05.803Z,3.60
2023-07-06T19:58:52.644Z,3.90
2023-07-06T20:01:39.936Z,6.20
2023-07-06T20:04:26.191Z,4.40
2023-07-06T20:07:13.774Z,3.90
2023-07-06T20:10:01.634Z,7.00
2023-07-06T20:12:47.432Z,3.40
2023-07-06T20:15:33.602Z,4.70
2023-07-06T20:18:19.682Z,5.20
2023-07-06T20:21:05.759Z,6.90
2023-07-06T20:23:51.859Z,7.10
2023-07-06T20:26:37.757Z,3.40
2023-07-06T20:29:24.396Z,4.60
2023-07-06T20:32:11.917Z,5.20
2023-07-06T20:34:57.870Z,5.40
2023-07-06T20:37:43.619Z,4.50
2023-07-06T20:40:29.748Z,5.40
2023-07-06T20:43:16.106Z,6.30
2023-07-06T20:46:02.047Z,5.10
2023-07-06T20:48:48.150Z,4.90
2023-07-06T20:51:33.894Z,5.70
2023-07-06T20:54:20.348Z,5.50
2023-07-06T20:57:07.092Z,5.80
2023-07-06T20:59:52.996Z,8.20
2023-07-06T21:02:39.144Z,6.10
2023-07-06T21:05:25.133Z,8.00
2023-07-06T21:08:11.283Z,5.80
2023-07-06T21:10:57.774Z,5.20
2023-07-06T21:13:44.199Z,7.40
2023-07-06T21:16:40.923Z,5.70
2023-07-06T21:19:27.243Z,8.70
2023-07-06T21:22:13.213Z,6.00
2023-07-06T21:24:59.114Z,6.80
2023-07-06T21:27:45.173Z,6.60
2023-07-06T21:30:31.652Z,6.20
2023-07-06T21:33:17.643Z,6.90
2023-07-06T21:36:03.549Z,6.10
2023-07-06T21:38:49.876Z,6.10
2023-07-06T21:41:36.626Z,7.60
2023-07-06T21:44:22.753Z,6.00
2023-07-06T21:47:08.349Z,6.10
2023-07-06T21:49:54.500Z,6.50
2023-07-06T21:52:40.809Z,6.40
2023-07-06T21:55:26.811Z,8.60
2023-07-06T21:58:12.647Z,6.60
2023-07-06T22:00:59.236Z,7.70
2023-07-06T22:03:45.925Z,6.60
2023-07-06T22:06:33.943Z,6.90
2023-07-06T22:09:19.928Z,6.70
2023-07-06T22:12:06.323Z,6.50
2023-07-06T22:14:52.173Z,5.80
2023-07-06T22:17:38.226Z,5.50
2023-07-06T22:20:24.492Z,7.40
2023-07-06T22:23:10.726Z,6.70
2023-07-06T22:25:57.286Z,8.40
2023-07-06T22:28:43.487Z,10.60
2023-07-06T22:31:29.630Z,6.30
2023-07-06T22:34:15.405Z,7.20
2023-07-06T22:37:01.925Z,7.00
2023-07-06T22:39:47.719Z,9.40
2023-07-06T22:42:33.706Z,6.10
2023-07-06T22:45:19.754Z,5.80
2023-07-06T22:48:05.880Z,6.70
2023-07-06T22:50:53.306Z,6.20
2023-07-06T22:53:39.590Z,7.20
2023-07-06T22:56:25.831Z,6.50
2023-07-06T22:59:11.936Z,7.00
2023-07-06T23:01:57.812Z,6.30
2023-07-06T23:04:44.057Z,8.10
2023-07-06T23:07:29.784Z,7.60
2023-07-06T23:10:15.856Z,7.20
2023-07-06T23:13:01.847Z,8.20
2023-07-06T23:15:47.935Z,7.00
2023-07-06T23:18:33.870Z,6.70
2023-07-06T23:21:19.891Z,7.50
2023-07-06T23:24:05.586Z,6.20
2023-07-06T23:26:50.948Z,7.50
2023-07-06T23:29:38.013Z,5.80
2023-07-06T23:32:28.210Z,7.60
2023-07-06T23:35:14.668Z,10.30
2023-07-06T23:38:00.551Z,7.50
2023-07-06T23:40:46.740Z,5.40
2023-07-06T23:43:32.560Z,9.40
2023-07-06T23:46:19.485Z,6.70
2023-07-06T23:49:05.269Z,6.30
2023-07-06T23:51:51.522Z,11.30
2023-07-06T23:54:37.561Z,6.10
2023-07-06T23:57:23.724Z,5.90
